createdAt,value
2018-02-13T00:00:37.169Z,99981.45
2018-02-13T00:03:05.586Z,99982.21
2018-02-13T00:05:34.041Z,99980.09
2018-02-13T00:10:53.693Z,99983.23
2018-02-13T00:13:22.117Z,99981.73
2018-02-13T00:15:50.541Z,99980.39
2018-02-13T00:18:18.986Z,99980.89
2018-02-13T00:20:47.386Z,99984.41
2018-02-13T00:23:15.801Z,99982.86
2018-02-13T00:25:44.273Z,99984.94
2018-02-13T00:28:12.695Z,99985.44
2018-02-13T00:30:41.107Z,99984.20
2018-02-13T00:33:09.554Z,99985.95
2018-02-13T00:35:37.957Z,99985.20
2018-02-13T00:38:06.387Z,99983.66
2018-02-13T00:40:34.892Z,99981.50
2018-02-13T00:43:03.316Z,99976.59
2018-02-13T00:45:31.726Z,99979.22
2018-02-13T00:48:00.185Z,99978.34
2018-02-13T00:50:28.599Z,99984.06
2018-02-13T00:52:57.002Z,99990.24
2018-02-13T00:55:25.451Z,99984.78
2018-02-13T00:57:53.856Z,99979.05
2018-02-13T01:00:22.302Z,99983.69
2018-02-13T01:02:50.762Z,99980.77
2018-02-13T01:05:19.167Z,99982.19
2018-02-13T01:07:47.601Z,99988.92
2018-02-13T01:10:16.046Z,99987.33
2018-02-13T01:12:44.457Z,99987.44
2018-02-13T01:15:12.890Z,99982.28
2018-02-13T01:17:41.358Z,99984.20
2018-02-13T01:20:09.761Z,99989.58
2018-02-13T01:22:38.188Z,99985.32
2018-02-13T01:25:06.652Z,99987.53
2018-02-13T01:27:35.076Z,99985.43
2018-02-13T01:30:03.514Z,99986.17
2018-02-13T01:32:31.958Z,99982.75
2018-02-13T01:35:00.394Z,99984.45
2018-02-13T01:37:28.799Z,99983.91
2018-02-13T01:39:57.246Z,99983.44
2018-02-13T01:42:25.645Z,99983.00
2018-02-13T01:44:54.074Z,99989.48
2018-02-13T01:47:22.529Z,99988.64
2018-02-13T01:49:50.946Z,99991.81
2018-02-13T01:52:19.346Z,99983.09
2018-02-13T01:54:47.799Z,99988.80
2018-02-13T01:57:16.210Z,99979.46
2018-02-13T01:59:44.631Z,99991.19
2018-02-13T02:02:13.098Z,99985.17
2018-02-13T02:04:41.489Z,99990.19
2018-02-13T02:07:09.885Z,99990.62
2018-02-13T02:09:38.351Z,99981.13
2018-02-13T02:12:06.746Z,99990.48
2018-02-13T02:14:35.138Z,99980.79
2018-02-13T02:17:03.574Z,99979.72
2018-02-13T02:19:31.979Z,99977.73
2018-02-13T02:22:00.399Z,99980.45
2018-02-13T02:24:28.841Z,99977.40
2018-02-13T02:26:57.254Z,99983.75
2018-02-13T02:29:25.668Z,99982.52
2018-02-13T02:31:54.124Z,99982.97
2018-02-13T02:34:22.550Z,99980.23
2018-02-13T02:36:50.954Z,99982.66
2018-02-13T02:39:19.401Z,99980.20
2018-02-13T02:41:47.822Z,99979.09
2018-02-13T02:44:16.241Z,99979.09
2018-02-13T02:46:44.715Z,99982.92
2018-02-13T02:49:13.131Z,99976.41
2018-02-13T02:51:41.525Z,99973.48
2018-02-13T02:54:09.979Z,99975.39
2018-02-13T02:56:38.380Z,99971.97
2018-02-13T02:59:06.793Z,99978.53
2018-02-13T03:01:35.256Z,99982.68
2018-02-13T03:04:03.650Z,99975.56
2018-02-13T03:06:32.075Z,99982.67
2018-02-13T03:09:00.684Z,99979.78
2018-02-13T03:11:29.099Z,99981.70
2018-02-13T03:13:57.505Z,99981.28
2018-02-13T03:16:25.959Z,99980.23
2018-02-13T03:18:54.372Z,99978.23
2018-02-13T03:21:22.773Z,99980.66
2018-02-13T03:23:51.206Z,99981.22
2018-02-13T03:26:19.593Z,99977.38
2018-02-13T03:28:48.003Z,99982.36
2018-02-13T03:31:16.448Z,99976.19
2018-02-13T03:33:44.841Z,99975.98
2018-02-13T03:36:13.256Z,99982.92
2018-02-13T03:38:41.716Z,99981.83
2018-02-13T03:41:10.124Z,99984.80
2018-02-13T03:43:38.529Z,99981.16
2018-02-13T03:46:06.969Z,99978.60
2018-02-13T03:48:35.366Z,99982.77
2018-02-13T03:51:03.772Z,99980.65
2018-02-13T03:53:32.220Z,99986.89
2018-02-13T03:56:00.627Z,99975.28
2018-02-13T03:58:29.041Z,99975.98
2018-02-13T04:00:57.478Z,99975.83
2018-02-13T04:03:25.892Z,99972.78
2018-02-13T04:05:54.284Z,99970.87
2018-02-13T04:08:22.717Z,99972.28
2018-02-13T04:10:51.110Z,99977.70
2018-02-13T04:13:19.563Z,99971.45
2018-02-13T04:15:47.996Z,99973.50
2018-02-13T04:18:16.391Z,99975.53
2018-02-13T04:20:44.796Z,99973.05
2018-02-13T04:23:13.253Z,99972.34
2018-02-13T04:25:41.644Z,99974.31
2018-02-13T04:28:10.052Z,99969.06
2018-02-13T04:30:38.525Z,99971.23
2018-02-13T04:33:06.927Z,99969.13
2018-02-13T04:35:35.320Z,99961.09
2018-02-13T04:38:03.754Z,99964.20
2018-02-13T04:40:32.158Z,99961.90
2018-02-13T04:43:00.567Z,99959.54
2018-02-13T04:45:29.018Z,99957.50
2018-02-13T04:47:57.425Z,99957.84
2018-02-13T04:50:25.822Z,99951.97
2018-02-13T04:52:54.259Z,99960.17
2018-02-13T04:55:22.679Z,99958.41
2018-02-13T04:57:51.073Z,99957.66
2018-02-13T05:00:19.517Z,99953.06
2018-02-13T05:02:47.927Z,99953.38
2018-02-13T05:05:16.320Z,99954.59
2018-02-13T05:07:44.767Z,99953.02
2018-02-13T05:10:13.157Z,99949.47
2018-02-13T05:12:41.577Z,99949.98
2018-02-13T05:15:10.059Z,99947.47
2018-02-13T05:17:38.471Z,99950.90
2018-02-13T05:20:06.865Z,99943.62
2018-02-13T05:22:35.333Z,99947.86
2018-02-13T05:25:03.744Z,99950.09
2018-02-13T05:27:32.152Z,99953.31
2018-02-13T05:30:00.629Z,99939.98
2018-02-13T05:32:29.017Z,99943.89
2018-02-13T05:34:57.416Z,99946.88
2018-02-13T05:37:25.879Z,99938.17
2018-02-13T05:39:54.289Z,99942.80
2018-02-13T05:42:22.692Z,99939.51
2018-02-13T05:44:51.313Z,99944.02
2018-02-13T05:47:19.725Z,99945.86
2018-02-13T05:49:48.136Z,99948.66
2018-02-13T05:52:16.573Z,99946.04
2018-02-13T05:54:44.984Z,99954.24
2018-02-13T05:57:13.397Z,99953.02
2018-02-13T05:59:41.843Z,99950.28
2018-02-13T06:02:10.255Z,99950.16
2018-02-13T06:04:38.661Z,99950.30
2018-02-13T06:07:07.097Z,99944.20
2018-02-13T06:09:35.508Z,99947.33
2018-02-13T06:12:03.893Z,99944.64
2018-02-13T06:14:32.340Z,99939.87
2018-02-13T06:17:00.760Z,99943.23
2018-02-13T06:19:29.162Z,99941.21
2018-02-13T06:21:57.629Z,99941.03
2018-02-13T06:24:26.050Z,99939.69
2018-02-13T06:26:54.445Z,99939.58
2018-02-13T06:29:22.904Z,99938.67
2018-02-13T06:31:51.310Z,99944.25
2018-02-13T06:34:19.723Z,99939.45
2018-02-13T06:36:48.183Z,99942.91
2018-02-13T06:39:16.572Z,99940.02
2018-02-13T06:41:44.958Z,99941.53
2018-02-13T06:44:13.413Z,99946.13
2018-02-13T06:46:41.832Z,99943.41
2018-02-13T06:49:10.247Z,99940.70
2018-02-13T06:51:38.709Z,99941.33
2018-02-13T06:54:07.136Z,99941.59
2018-02-13T06:56:35.536Z,99934.45
2018-02-13T06:59:03.987Z,99943.15
2018-02-13T07:01:32.373Z,99940.11
2018-02-13T07:04:00.773Z,99941.51
2018-02-13T07:06:29.230Z,99946.88
2018-02-13T07:08:57.645Z,99947.47
2018-02-13T07:11:26.041Z,99949.86
2018-02-13T07:13:54.507Z,99948.13
2018-02-13T07:16:22.915Z,99948.34
2018-02-13T07:18:51.336Z,99945.45
2018-02-13T07:21:19.785Z,99946.88
2018-02-13T07:23:48.198Z,99945.15
2018-02-13T07:26:16.620Z,99951.62
2018-02-13T07:28:45.064Z,99956.95
2018-02-13T07:31:13.461Z,99957.52
2018-02-13T07:33:41.868Z,99957.22
2018-02-13T07:36:10.320Z,99958.34
2018-02-13T07:38:38.709Z,99959.21
2018-02-13T07:41:07.115Z,99957.59
2018-02-13T07:43:35.565Z,99955.05
2018-02-13T07:46:03.966Z,99957.92
2018-02-13T07:48:32.376Z,99961.44
2018-02-13T07:51:00.824Z,99952.67
2018-02-13T07:53:29.231Z,99961.34
2018-02-13T07:55:57.629Z,99957.72
2018-02-13T07:58:26.106Z,99957.06
2018-02-13T08:00:54.516Z,99960.23
2018-02-13T08:03:22.936Z,99961.62
2018-02-13T08:05:51.381Z,99962.50
2018-02-13T08:08:19.778Z,99964.94
2018-02-13T08:10:48.181Z,99965.23
2018-02-13T08:13:16.640Z,99962.58
2018-02-13T08:15:45.037Z,99968.95
2018-02-13T08:18:13.428Z,99958.73
2018-02-13T08:20:41.892Z,99959.14
2018-02-13T08:23:10.309Z,99959.85
2018-02-13T08:25:38.702Z,99969.31
2018-02-13T08:28:07.245Z,99967.91
2018-02-13T08:30:35.662Z,99968.81
2018-02-13T08:33:04.084Z,99969.31
2018-02-13T08:35:32.560Z,99966.45
2018-02-13T08:38:00.976Z,99966.45
2018-02-13T08:40:29.375Z,99964.39
2018-02-13T08:42:57.825Z,99962.09
2018-02-13T08:45:26.240Z,99967.44
2018-02-13T08:47:54.652Z,99959.23
2018-02-13T08:50:23.098Z,99962.05
2018-02-13T08:52:51.482Z,99961.98
2018-02-13T08:55:19.870Z,99958.61
2018-02-13T08:57:48.465Z,99963.75
2018-02-13T09:00:16.888Z,99961.98
2018-02-13T09:02:45.300Z,99970.52
2018-02-13T09:05:13.764Z,99962.80
2018-02-13T09:07:42.157Z,99966.41
2018-02-13T09:10:10.572Z,99959.56
2018-02-13T09:12:39.025Z,99959.66
2018-02-13T09:15:07.417Z,99961.66
2018-02-13T09:17:35.824Z,99958.62
2018-02-13T09:20:04.297Z,99954.98
2018-02-13T09:22:32.711Z,99956.41
2018-02-13T09:25:01.102Z,99952.23
2018-02-13T09:27:29.569Z,99946.72
2018-02-13T09:29:57.974Z,99945.19
2018-02-13T09:32:26.369Z,99947.46
2018-02-13T09:34:54.805Z,99943.00
2018-02-13T09:37:23.207Z,99945.98
2018-02-13T09:39:51.608Z,99937.35
2018-02-13T09:42:20.044Z,99938.91
2018-02-13T09:44:48.429Z,99937.77
2018-02-13T09:47:16.843Z,99931.86
2018-02-13T09:49:45.257Z,99932.91
2018-02-13T09:52:13.656Z,99927.75
2018-02-13T09:54:42.045Z,99926.06
2018-02-13T09:57:10.485Z,99920.30
2018-02-13T09:59:39.776Z,99930.48
2018-02-13T10:02:08.166Z,99927.64
2018-02-13T10:04:36.606Z,99919.69
2018-02-13T10:07:05.009Z,99914.30
2018-02-13T10:09:33.390Z,99921.42
2018-02-13T10:12:01.818Z,99917.20
2018-02-13T10:14:30.232Z,99922.48
2018-02-13T10:16:58.665Z,99919.09
2018-02-13T10:19:27.325Z,99912.50
2018-02-13T10:21:55.757Z,99913.89
2018-02-13T10:24:24.188Z,99905.18
2018-02-13T10:26:52.808Z,99897.16
2018-02-13T10:29:21.212Z,99900.63
2018-02-13T10:31:50.039Z,99900.31
2018-02-13T10:34:18.504Z,99900.48
2018-02-13T10:36:46.893Z,99899.42
2018-02-13T10:39:15.311Z,99899.72
2018-02-13T10:41:43.758Z,99899.53
2018-02-13T10:44:12.207Z,99902.87
2018-02-13T10:46:40.573Z,99898.53
2018-02-13T10:49:09.010Z,99905.31
2018-02-13T10:51:37.397Z,99898.47
2018-02-13T10:54:05.800Z,99893.33
2018-02-13T10:56:34.263Z,99892.05
2018-02-13T10:59:02.672Z,99889.42
2018-02-13T11:01:36.738Z,99889.16
2018-02-13T11:04:05.123Z,99886.93
2018-02-13T11:06:33.497Z,99886.00
2018-02-13T11:09:01.940Z,99886.45
2018-02-13T11:11:30.334Z,99887.46
2018-02-13T11:13:58.729Z,99884.97
2018-02-13T11:16:27.153Z,99882.19
2018-02-13T11:18:55.551Z,99880.09
2018-02-13T11:21:23.936Z,99873.13
2018-02-13T11:23:52.462Z,99876.62
2018-02-13T11:26:20.860Z,99867.57
2018-02-13T11:28:49.257Z,99864.76
2018-02-13T11:31:17.700Z,99865.66
2018-02-13T11:33:46.111Z,99862.72
2018-02-13T11:36:14.502Z,99861.58
2018-02-13T11:38:42.952Z,99867.11
2018-02-13T11:41:11.338Z,99855.14
2018-02-13T11:43:39.740Z,99858.95
2018-02-13T11:46:08.185Z,99853.75
2018-02-13T11:48:36.596Z,99849.90
2018-02-13T11:51:05.000Z,99852.58
2018-02-13T11:53:33.444Z,99854.14
2018-02-13T11:56:01.846Z,99852.41
2018-02-13T11:58:30.245Z,99846.65
2018-02-13T12:00:58.705Z,99846.09
2018-02-13T12:03:27.083Z,99848.91
2018-02-13T12:05:55.494Z,99843.03
2018-02-13T12:08:23.953Z,99842.59
2018-02-13T12:10:52.339Z,99836.39
2018-02-13T12:13:20.734Z,99832.36
2018-02-13T12:15:49.200Z,99839.95
2018-02-13T12:18:17.587Z,99834.66
2018-02-13T12:20:45.980Z,99829.58
2018-02-13T12:23:14.420Z,99830.88
2018-02-13T12:25:42.865Z,99824.45
2018-02-13T12:28:11.305Z,99823.58
2018-02-13T12:30:39.796Z,99821.22
2018-02-13T12:33:08.259Z,99825.13
2018-02-13T12:35:36.659Z,99816.80
2018-02-13T12:38:05.114Z,99816.80
2018-02-13T12:40:33.511Z,99817.24
2018-02-13T12:43:01.923Z,99816.46
2018-02-13T12:45:30.540Z,99811.60
2018-02-13T12:47:58.965Z,99812.84
2018-02-13T12:50:27.362Z,99806.17
2018-02-13T12:52:55.839Z,99801.88
2018-02-13T12:55:24.248Z,99803.37
2018-02-13T12:57:52.668Z,99803.93
2018-02-13T13:00:21.110Z,99795.75
2018-02-13T13:02:49.509Z,99798.54
2018-02-13T13:05:17.950Z,99795.09
2018-02-13T13:07:46.421Z,99791.12
2018-02-13T13:10:14.839Z,99791.59
2018-02-13T13:12:43.256Z,99795.19
2018-02-13T13:15:11.703Z,99787.28
2018-02-13T13:17:40.101Z,99789.30
2018-02-13T13:20:08.490Z,99784.17
2018-02-13T13:22:36.937Z,99784.72
2018-02-13T13:25:05.318Z,99783.67
2018-02-13T13:27:33.697Z,99777.69
2018-02-13T13:30:02.145Z,99778.48
2018-02-13T13:32:30.556Z,99775.88
2018-02-13T13:34:58.965Z,99783.16
2018-02-13T13:37:27.393Z,99769.78
2018-02-13T13:39:55.808Z,99775.19
2018-02-13T13:42:24.209Z,99769.65
2018-02-13T13:44:52.674Z,99770.81
2018-02-13T13:47:21.072Z,99768.44
2018-02-13T13:49:49.477Z,99768.08
2018-02-13T13:52:17.909Z,99769.22
2018-02-13T13:54:46.327Z,99766.53
2018-02-13T13:57:14.717Z,99760.17
2018-02-13T13:59:43.164Z,99761.50
2018-02-13T14:02:11.574Z,99759.53
2018-02-13T14:04:39.988Z,99751.38
2018-02-13T14:07:08.450Z,99751.33
2018-02-13T14:09:36.856Z,99754.76
2018-02-13T14:12:05.277Z,99751.15
2018-02-13T14:14:33.865Z,99749.37
2018-02-13T14:17:03.176Z,99750.34
2018-02-13T14:19:31.577Z,99745.62
2018-02-13T14:22:00.018Z,99742.30
2018-02-13T14:24:28.411Z,99744.77
2018-02-13T14:26:56.829Z,99748.52
2018-02-13T14:29:25.293Z,99741.94
2018-02-13T14:31:53.700Z,99743.22
2018-02-13T14:34:22.113Z,99746.72
2018-02-13T14:36:50.521Z,99744.40
2018-02-13T14:39:18.914Z,99746.31
2018-02-13T14:41:47.294Z,99742.05
2018-02-13T14:44:15.749Z,99752.97
2018-02-13T14:46:44.133Z,99749.25
2018-02-13T14:49:12.514Z,99752.31
2018-02-13T14:51:40.937Z,99750.39
2018-02-13T14:54:09.342Z,99750.50
2018-02-13T14:56:37.747Z,99745.89
2018-02-13T14:59:06.233Z,99747.78
2018-02-13T15:01:34.636Z,99747.52
2018-02-13T15:04:03.028Z,99750.10
2018-02-13T15:06:31.472Z,99748.89
2018-02-13T15:08:59.861Z,99748.45
2018-02-13T15:11:28.273Z,99750.19
2018-02-13T15:13:56.759Z,99753.66
2018-02-13T15:16:25.180Z,99755.50
2018-02-13T15:18:53.596Z,99759.89
2018-02-13T15:21:22.034Z,99760.42
2018-02-13T15:23:50.433Z,99758.77
2018-02-13T15:26:18.825Z,99762.32
2018-02-13T15:28:47.262Z,99764.65
2018-02-13T15:31:15.641Z,99761.45
2018-02-13T15:33:44.056Z,99758.34
2018-02-13T15:36:12.475Z,99759.34
2018-02-13T15:38:40.874Z,99760.28
2018-02-13T15:41:09.266Z,99765.31
2018-02-13T15:43:37.713Z,99771.66
2018-02-13T15:46:06.119Z,99770.79
2018-02-13T15:48:34.507Z,99766.17
2018-02-13T15:51:02.938Z,99766.42
2018-02-13T15:53:31.323Z,99765.09
2018-02-13T15:55:59.721Z,99760.09
2018-02-13T15:58:28.157Z,99759.75
2018-02-13T16:00:56.545Z,99761.33
2018-02-13T16:03:24.927Z,99762.92
2018-02-13T16:05:53.510Z,99759.66
2018-02-13T16:08:21.905Z,99773.06
2018-02-13T16:10:50.286Z,99770.38
2018-02-13T16:13:18.738Z,118368.60
2018-02-13T16:15:47.145Z,118368.60
2018-02-13T16:18:15.564Z,99765.61
2018-02-13T16:20:44.014Z,99773.14
2018-02-13T16:23:12.413Z,153449.27
2018-02-13T16:25:40.840Z,118368.60
2018-02-13T16:28:09.287Z,99769.14
2018-02-13T16:30:37.700Z,118368.60
2018-02-13T16:33:06.662Z,118368.60
2018-02-13T16:35:35.130Z,118368.60
2018-02-13T16:38:03.565Z,118368.60
2018-02-13T16:40:32.008Z,118368.60
2018-02-13T16:43:00.507Z,118368.60
2018-02-13T16:45:28.949Z,118368.60
2018-02-13T16:47:57.406Z,118368.60
2018-02-13T16:50:25.888Z,118368.60
2018-02-13T16:52:54.324Z,118368.60
2018-02-13T16:55:22.738Z,118368.60
2018-02-13T16:57:51.204Z,118368.60
2018-02-13T17:00:19.641Z,118368.60
2018-02-13T17:02:48.067Z,118368.60
2018-02-13T17:05:16.546Z,118368.60
2018-02-13T17:07:44.994Z,118368.60
2018-02-13T17:10:13.425Z,118368.60
2018-02-13T17:12:42.136Z,118368.60
2018-02-13T17:15:10.569Z,118368.60
2018-02-13T17:17:39.012Z,118368.60
2018-02-13T17:20:07.478Z,118368.60
2018-02-13T17:22:35.922Z,118368.60
2018-02-13T17:25:04.377Z,118368.60
2018-02-13T17:27:32.858Z,118368.60
2018-02-13T17:30:01.284Z,118368.60
2018-02-13T17:32:29.741Z,118368.60
2018-02-13T17:34:58.246Z,118368.60
2018-02-13T17:37:26.674Z,118368.60
2018-02-13T17:41:11.471Z,99796.28
2018-02-13T17:43:39.874Z,99800.89
2018-02-13T17:46:08.279Z,99799.70
2018-02-13T17:48:36.737Z,99800.23
2018-02-13T17:51:05.150Z,99799.97
2018-02-13T17:53:33.549Z,99804.12
2018-02-13T17:56:01.998Z,99803.67
2018-02-13T17:58:30.381Z,99800.63
2018-02-13T18:00:58.808Z,99800.29
2018-02-13T18:03:27.265Z,99801.38
2018-02-13T18:05:55.655Z,99797.39
2018-02-13T18:08:24.052Z,99805.07
2018-02-13T18:10:52.516Z,99804.92
2018-02-13T18:13:20.977Z,99802.92
2018-02-13T18:15:49.365Z,99807.88
2018-02-13T18:18:18.103Z,99811.20
2018-02-13T18:20:46.486Z,99812.03
2018-02-13T18:23:14.884Z,99814.31
2018-02-13T18:25:43.338Z,99810.47
2018-02-13T18:28:11.721Z,99809.14
2018-02-13T18:30:40.132Z,99811.66
2018-02-13T18:33:08.597Z,99813.40
2018-02-13T18:35:37.023Z,99807.73
2018-02-13T18:38:05.407Z,99813.82
2018-02-13T18:40:33.848Z,99816.34
2018-02-13T18:43:02.251Z,99811.53
2018-02-13T18:45:30.660Z,99808.36
2018-02-13T18:47:59.100Z,99810.55
2018-02-13T18:50:27.493Z,99806.08
2018-02-13T18:55:24.340Z,99813.42
2018-02-13T18:57:52.745Z,99810.99
2018-02-13T19:00:21.149Z,99817.77
2018-02-13T19:02:49.604Z,99812.56
2018-02-13T19:05:18.009Z,99814.75
2018-02-13T19:07:46.401Z,99815.66
2018-02-13T19:10:14.863Z,99819.48
2018-02-13T19:12:43.257Z,99828.70
2018-02-13T19:15:11.665Z,99822.03
2018-02-13T19:17:40.086Z,99823.23
2018-02-13T19:20:08.493Z,99825.89
2018-02-13T19:22:36.891Z,99826.50
2018-02-13T19:25:05.326Z,99825.13
2018-02-13T19:27:33.718Z,99821.98
2018-02-13T19:30:02.124Z,99824.92
2018-02-13T19:32:30.548Z,99819.70
2018-02-13T19:34:58.967Z,99819.98
2018-02-13T19:37:27.368Z,99830.97
2018-02-13T19:39:55.800Z,99821.69
2018-02-13T19:42:24.210Z,99825.32
2018-02-13T19:44:52.620Z,99830.06
2018-02-13T19:47:21.065Z,99829.45
2018-02-13T19:49:49.449Z,99832.22
2018-02-13T19:52:17.844Z,99834.36
2018-02-13T19:54:46.454Z,99839.66
2018-02-13T19:57:14.853Z,99839.45
2018-02-13T19:59:43.236Z,99843.70
2018-02-13T20:02:11.672Z,99852.74
2018-02-13T20:04:40.069Z,99850.90
2018-02-13T20:07:08.445Z,99852.03
2018-02-13T20:09:36.905Z,99855.98
2018-02-13T20:12:05.341Z,99858.13
2018-02-13T20:14:33.733Z,99855.72
2018-02-13T20:17:02.168Z,99862.61
2018-02-13T20:19:30.546Z,99860.45
2018-02-13T20:21:58.939Z,99858.07
2018-02-13T20:24:27.555Z,99859.91
2018-02-13T20:26:55.980Z,99855.13
2018-02-13T20:29:24.369Z,99856.73
2018-02-13T20:31:53.177Z,99858.25
2018-02-13T20:34:21.685Z,99858.70
2018-02-13T20:36:50.068Z,99856.77
2018-02-13T20:39:18.517Z,99859.92
2018-02-13T20:41:46.906Z,99861.61
2018-02-13T20:44:15.298Z,99862.30
2018-02-13T20:46:43.813Z,99863.87
2018-02-13T20:49:12.221Z,99859.85
2018-02-13T20:51:40.591Z,99869.38
2018-02-13T20:54:09.023Z,99864.25
2018-02-13T20:56:37.444Z,99860.23
2018-02-13T20:59:05.822Z,99859.78
2018-02-13T21:01:34.260Z,99859.86
2018-02-13T21:04:02.661Z,99870.41
2018-02-13T21:06:31.048Z,99863.00
2018-02-13T21:08:59.688Z,99865.01
2018-02-13T21:11:28.070Z,99874.67
2018-02-13T21:13:56.457Z,99876.27
2018-02-13T21:16:24.897Z,99869.72
2018-02-13T21:18:53.292Z,99871.34
2018-02-13T21:21:21.692Z,99869.81
2018-02-13T21:23:50.123Z,99875.48
2018-02-13T21:26:18.514Z,99883.09
2018-02-13T21:28:46.898Z,99882.36
2018-02-13T21:31:15.316Z,99885.97
2018-02-13T21:33:43.690Z,99882.33
2018-02-13T21:36:12.117Z,99881.28
2018-02-13T21:38:40.545Z,99890.77
2018-02-13T21:41:08.965Z,99883.04
2018-02-13T21:43:37.343Z,99886.02
2018-02-13T21:46:05.758Z,99890.48
2018-02-13T21:48:34.186Z,99889.13
2018-02-13T21:51:02.574Z,99888.42
2018-02-13T21:53:30.998Z,99880.53
2018-02-13T21:55:59.392Z,99884.09
2018-02-13T21:58:27.789Z,99886.22
2018-02-13T22:00:56.246Z,99887.86
2018-02-13T22:03:24.626Z,99885.84
2018-02-13T22:05:53.087Z,99881.58
2018-02-13T22:08:21.521Z,99883.95
2018-02-13T22:10:49.960Z,99888.38
2018-02-13T22:13:18.403Z,99884.95
2018-02-13T22:15:46.840Z,99898.92
2018-02-13T22:18:15.289Z,99897.55
2018-02-13T22:20:43.673Z,99900.39
2018-02-13T22:23:12.101Z,99900.23
2018-02-13T22:25:40.517Z,99896.36
2018-02-13T22:28:08.924Z,99894.79
2018-02-13T22:30:37.369Z,99895.52
2018-02-13T22:33:05.769Z,99903.09
2018-02-13T22:35:34.163Z,99900.78
2018-02-13T22:38:02.629Z,99899.05
2018-02-13T22:40:31.035Z,99902.67
2018-02-13T22:42:59.441Z,99902.37
2018-02-13T22:45:27.908Z,99906.55
2018-02-13T22:47:56.316Z,99907.54
2018-02-13T22:50:24.713Z,99910.68
2018-02-13T22:52:53.160Z,99913.27
2018-02-13T22:55:21.579Z,99907.00
2018-02-13T22:57:49.974Z,99910.77
2018-02-13T23:00:21.324Z,99909.36
2018-02-13T23:02:49.717Z,99907.27
2018-02-13T23:05:18.121Z,99911.02
2018-02-13T23:07:46.775Z,99906.91
2018-02-13T23:10:15.162Z,99903.10
2018-02-13T23:12:43.569Z,99905.73
2018-02-13T23:15:12.049Z,99908.05
2018-02-13T23:17:40.453Z,99911.34
2018-02-13T23:20:08.838Z,99906.92
2018-02-13T23:22:37.263Z,99910.35
2018-02-13T23:25:05.648Z,99907.33
2018-02-13T23:27:34.048Z,99915.52
2018-02-13T23:30:02.478Z,99916.15
2018-02-13T23:32:30.880Z,99917.02
2018-02-13T23:34:59.288Z,99918.67
2018-02-13T23:37:27.736Z,99921.78
2018-02-13T23:39:56.120Z,99923.00
2018-02-13T23:42:24.510Z,99925.13
2018-02-13T23:44:52.940Z,99929.30
2018-02-13T23:47:21.333Z,99935.56
2018-02-13T23:49:49.749Z,99933.44
2018-02-13T23:52:18.173Z,99937.92
2018-02-13T23:54:46.580Z,99937.21
2018-02-13T23:57:14.965Z,99936.11
2018-02-13T23:59:43.410Z,99936.28
